Time;durP1;ratioP1;P1;durP2;ratioP2;P2;SDS_P1;SDS_P2;PMS_P1;PMS_P2;Temp;Humidity;BMP_temperature;BMP_pressure;BME280_temperature;BME280_humidity;BME280_pressure;Samples;Min_cycle;Max_cycle;Signal;HPM_P1;HPM_P2
2022/05/31 00:01:31;;;;;;;3.13;2.05;;;;;;;9.18;67.08;101294.88;5040801;28;20076;-77
2022/05/31 00:03:58;;;;;;;6.35;2.30;;;;;;;9.18;67.18;101292.25;5034244;28;20052;-74
2022/05/31 00:06:25;;;;;;;5.28;2.35;;;;;;;9.19;67.38;101291.38;5040849;28;20053;-74
2022/05/31 00:08:53;;;;;;;4.18;2.20;;;;;;;9.21;67.26;101289.56;5036145;28;20157;-73
2022/05/31 00:11:21;;;;;;;6.25;2.47;;;;;;;9.24;67.28;101291.28;5034813;28;20050;-75
2022/05/31 00:13:49;;;;;;;4.70;2.25;;;;;;;9.24;67.24;101279.00;5039203;28;20124;-72
2022/05/31 00:16:17;;;;;;;2.85;2.17;;;;;;;9.27;67.40;101285.94;5038831;28;20041;-74
2022/05/31 00:18:44;;;;;;;4.45;2.30;;;;;;;9.28;67.51;101282.44;5040523;28;20046;-73
2022/05/31 00:21:11;;;;;;;5.07;2.67;;;;;;;9.28;67.25;101283.31;5036537;28;20038;-75
2022/05/31 00:23:42;;;;;;;5.88;3.00;;;;;;;9.34;67.20;101284.97;5042830;28;20038;-76
2022/05/31 00:26:10;;;;;;;6.55;2.80;;;;;;;9.34;67.14;101284.97;5030863;28;20050;-73
2022/05/31 00:28:37;;;;;;;6.65;2.88;;;;;;;9.36;67.31;101283.16;5032626;28;20045;-73
2022/05/31 00:31:07;;;;;;;7.10;3.13;;;;;;;9.35;67.16;101280.56;5041729;28;20470;-74
2022/05/31 00:33:35;;;;;;;5.40;2.83;;;;;;;9.32;67.38;101287.59;5045704;28;20051;-73
2022/05/31 00:36:04;;;;;;;5.07;2.60;;;;;;;9.30;67.49;101284.16;5039113;28;20121;-74
2022/05/31 00:38:31;;;;;;;5.07;2.72;;;;;;;9.29;67.77;101286.78;5036345;28;20036;-73
2022/05/31 00:41:26;;;;;;;4.00;2.55;;;;;;;9.29;67.53;101282.41;5040447;28;20046;-75
2022/05/31 00:44:05;;;;;;;4.68;2.88;;;;;;;9.28;67.26;101280.69;5035066;28;20077;-73
2022/05/31 00:46:44;;;;;;;5.72;3.15;;;;;;;9.26;67.23;101282.47;5043135;28;20666;-73
2022/05/31 00:49:36;;;;;;;9.05;3.28;;;;;;;9.24;67.38;101279.00;5040984;28;20049;-74
2022/05/31 00:52:23;;;;;;;5.50;3.33;;;;;;;9.25;67.39;101274.59;5041594;28;20838;-73
2022/05/31 00:55:04;;;;;;;3.88;2.60;;;;;;;9.23;67.45;101279.03;5037747;28;20516;-71
2022/05/31 00:57:36;;;;;;;5.55;2.60;;;;;;;9.17;67.58;101272.09;5040085;28;20147;-72
2022/05/31 01:00:12;;;;;;;8.27;2.97;;;;;;;9.13;67.84;101273.94;5036508;28;20096;-73
2022/05/31 01:02:43;;;;;;;4.35;3.00;;;;;;;9.09;68.12;101274.00;5045486;28;20041;-73
2022/05/31 01:05:14;;;;;;;4.60;2.67;;;;;;;9.05;67.92;101281.09;5044206;28;20050;-74
2022/05/31 01:07:41;;;;;;;4.32;2.90;;;;;;;9.02;68.22;101274.09;5045656;28;20042;-74
2022/05/31 01:10:13;;;;;;;7.35;3.30;;;;;;;9.02;68.19;101268.84;5042024;28;20131;-76
2022/05/31 01:12:53;;;;;;;4.55;2.63;;;;;;;8.99;68.68;101273.28;5038366;28;20054;-77
2022/05/31 01:15:42;;;;;;;6.60;3.10;;;;;;;8.92;68.63;101264.63;5041698;28;20049;-77
2022/05/31 01:18:28;;;;;;;5.18;2.97;;;;;;;8.88;68.73;101275.22;5041818;28;20053;-77
2022/05/31 01:21:14;;;;;;;4.00;2.40;;;;;;;8.83;68.72;101268.28;5031141;28;20861;-77
2022/05/31 01:24:15;;;;;;;5.78;3.08;;;;;;;8.81;69.20;101272.69;5036980;28;20053;-78
2022/05/31 01:27:50;;;;;;;6.05;2.75;;;;;;;8.76;69.18;101274.50;5041915;28;20556;-77
2022/05/31 01:30:18;;;;;;;4.57;3.00;;;;;;;8.70;69.34;101274.63;5026310;28;20428;-76
2022/05/31 01:33:11;;;;;;;5.63;3.40;;;;;;;8.66;69.15;101276.44;5046058;28;20129;-76
2022/05/31 01:35:39;;;;;;;6.60;2.78;;;;;;;8.61;69.54;101280.03;5052938;28;20121;-75
2022/05/31 01:38:25;;;;;;;7.15;3.10;;;;;;;8.57;69.56;101279.22;5048345;28;20161;-74
2022/05/31 01:41:19;;;;;;;4.57;3.08;;;;;;;8.50;69.66;101274.91;5033407;28;20121;-74
2022/05/31 01:43:51;;;;;;;6.10;3.00;;;;;;;8.44;70.05;101273.25;5036184;28;20448;-74
2022/05/31 01:46:27;;;;;;;3.95;2.90;;;;;;;8.42;70.17;101267.13;5033676;28;20045;-73
2022/05/31 01:48:57;;;;;;;5.72;3.10;;;;;;;8.36;70.15;101268.09;5047058;28;20050;-72
2022/05/31 01:51:26;;;;;;;5.68;3.05;;;;;;;8.31;70.46;101275.16;5050571;28;20210;-74
2022/05/31 01:53:56;;;;;;;5.32;3.20;;;;;;;8.28;70.39;101275.22;5040686;28;20901;-74
2022/05/31 01:56:26;;;;;;;3.88;3.22;;;;;;;8.25;70.70;101270.00;5047102;28;20486;-74
2022/05/31 01:58:55;;;;;;;6.43;3.22;;;;;;;8.21;70.90;101269.16;5035386;28;21104;-74
2022/05/31 02:01:31;;;;;;;3.88;2.80;;;;;;;8.18;71.60;101260.47;5056685;28;20041;-74
2022/05/31 02:04:00;;;;;;;4.03;3.22;;;;;;;8.12;71.52;101260.53;5043095;28;20057;-75
2022/05/31 02:06:39;;;;;;;7.65;3.22;;;;;;;8.08;71.83;101259.72;5043538;28;20100;-75
2022/05/31 02:09:12;;;;;;;5.03;3.65;;;;;;;8.06;71.99;101258.84;5052935;28;20119;-74
2022/05/31 02:11:41;;;;;;;5.15;3.40;;;;;;;8.03;72.13;101265.03;5047971;28;20050;-74
2022/05/31 02:14:24;;;;;;;6.88;3.55;;;;;;;8.03;72.00;101262.41;5048999;28;20511;-74
2022/05/31 02:16:52;;;;;;;6.60;4.07;;;;;;;8.03;72.36;101261.53;5034016;28;20467;-74
2022/05/31 02:19:39;;;;;;;7.13;3.80;;;;;;;7.99;72.52;101254.59;5040880;28;20048;-72
2022/05/31 02:22:36;;;;;;;7.40;4.13;;;;;;;7.97;72.45;101253.72;5035295;28;20042;-73
2022/05/31 02:25:04;;;;;;;7.80;4.10;;;;;;;7.98;72.50;101260.72;5046344;28;20037;-73
2022/05/31 02:27:32;;;;;;;6.72;3.80;;;;;;;8.00;72.74;101257.16;5048996;28;20107;-74
2022/05/31 02:29:59;;;;;;;6.55;4.20;;;;;;;8.01;72.43;101256.28;5049935;28;20044;-74
2022/05/31 02:32:29;;;;;;;6.90;4.05;;;;;;;8.00;72.87;101265.06;5049748;28;20109;-75
2022/05/31 02:34:57;;;;;;;7.18;4.25;;;;;;;7.99;72.67;101260.69;5043632;28;20042;-75
2022/05/31 02:37:24;;;;;;;7.97;4.38;;;;;;;8.00;72.75;101264.19;5045817;28;20054;-75
2022/05/31 02:39:51;;;;;;;6.93;4.28;;;;;;;7.99;72.64;101260.69;5032583;28;20065;-75
2022/05/31 02:42:19;;;;;;;7.75;4.53;;;;;;;8.04;72.85;101268.50;5050858;28;20034;-75
2022/05/31 02:44:46;;;;;;;8.02;4.32;;;;;;;8.03;72.81;101259.78;5050568;28;20157;-75
2022/05/31 02:47:14;;;;;;;8.05;4.00;;;;;;;8.05;73.00;101257.13;5045464;28;20124;-74
2022/05/31 02:49:45;;;;;;;8.60;4.35;;;;;;;8.08;73.16;101262.34;5047345;28;20046;-74
2022/05/31 02:52:14;;;;;;;6.40;4.00;;;;;;;8.10;73.24;101252.69;5050900;28;20729;-73
2022/05/31 02:54:43;;;;;;;6.40;4.35;;;;;;;8.12;73.04;101255.28;5050593;28;20042;-74
2022/05/31 02:57:19;;;;;;;5.80;3.83;;;;;;;8.14;73.04;101254.34;5033938;28;20097;-75
2022/05/31 02:59:48;;;;;;;6.82;4.35;;;;;;;8.16;73.09;101252.59;5053697;28;20041;-74
2022/05/31 03:02:36;;;;;;;11.57;5.28;;;;;;;8.18;72.81;101253.44;5036282;28;20180;-76
2022/05/31 03:05:29;;;;;;;7.38;4.68;;;;;;;8.23;73.00;101256.00;5038526;28;20053;-75
2022/05/31 03:08:05;;;;;;;9.70;4.90;;;;;;;8.28;72.78;101256.81;5047889;28;20487;-78
2022/05/31 03:10:55;;;;;;;5.72;4.57;;;;;;;8.34;72.68;101246.22;5040387;28;20136;-76
2022/05/31 03:13:28;;;;;;;6.82;4.85;;;;;;;8.41;72.67;101249.63;5047986;28;20141;-75
2022/05/31 03:16:02;;;;;;;8.30;5.32;;;;;;;8.47;72.55;101253.94;5041102;28;20044;-76
2022/05/31 03:18:46;;;;;;;8.07;5.50;;;;;;;8.50;72.58;101244.25;5035925;28;20038;-76
2022/05/31 03:21:29;;;;;;;8.43;5.20;;;;;;;8.54;72.38;101239.81;5034659;28;20037;-76
2022/05/31 03:24:06;;;;;;;8.50;5.28;;;;;;;8.57;71.95;101244.16;5047059;28;20041;-75
2022/05/31 03:26:37;;;;;;;7.18;4.85;;;;;;;8.55;72.12;101241.56;5035494;28;20061;-74
2022/05/31 03:29:05;;;;;;;10.10;5.32;;;;;;;8.54;72.21;101237.19;5049249;28;20033;-76
2022/05/31 03:31:32;;;;;;;8.30;5.13;;;;;;;8.53;72.24;101244.22;5035751;28;20125;-75
2022/05/31 03:33:59;;;;;;;7.47;5.10;;;;;;;8.51;72.43;101239.84;5047170;28;20033;-76
2022/05/31 03:36:28;;;;;;;11.25;5.63;;;;;;;8.49;72.52;101247.78;5060672;28;20042;-76
2022/05/31 03:39:04;;;;;;;6.75;5.00;;;;;;;8.49;72.56;101236.41;5051104;28;20037;-76
2022/05/31 03:41:35;;;;;;;8.27;5.00;;;;;;;8.48;72.89;101242.56;5041670;28;20041;-76
2022/05/31 03:44:03;;;;;;;9.77;6.25;;;;;;;8.47;73.07;101239.03;5048734;28;20038;-74
2022/05/31 03:47:04;;;;;;;12.20;5.75;;;;;;;8.49;73.28;101239.03;5054905;28;20116;-75
2022/05/31 03:49:40;;;;;;;11.35;6.55;;;;;;;8.52;73.25;101233.72;5040099;28;20050;-76
2022/05/31 03:52:08;;;;;;;10.23;6.80;;;;;;;8.59;73.18;101240.63;5046170;28;20053;-75
2022/05/31 03:54:40;;;;;;;12.45;7.03;;;;;;;8.65;73.01;101237.91;5049234;28;20101;-76
2022/05/31 03:57:18;;;;;;;12.32;7.28;;;;;;;8.69;73.06;101236.09;5034776;28;20088;-75
2022/05/31 03:59:51;;;;;;;9.02;6.82;;;;;;;8.76;72.91;101236.84;5044858;28;20078;-75
2022/05/31 04:02:21;;;;;;;10.63;6.82;;;;;;;8.78;72.86;101235.94;5051877;28;20108;-74
2022/05/31 04:04:48;;;;;;;11.30;7.28;;;;;;;8.77;72.88;101234.19;5043653;28;20038;-75
2022/05/31 04:07:15;;;;;;;9.13;6.68;;;;;;;8.80;72.80;101236.78;5053259;28;20046;-77
2022/05/31 04:09:42;;;;;;;11.52;7.20;;;;;;;8.82;72.89;101239.38;5051884;28;20129;-76
2022/05/31 04:12:10;;;;;;;10.85;7.30;;;;;;;8.86;72.90;101238.44;5042544;28;20062;-75
2022/05/31 04:14:57;;;;;;;10.68;6.95;;;;;;;8.88;72.97;101234.03;5033596;28;21077;-78
2022/05/31 04:17:25;;;;;;;9.73;7.00;;;;;;;8.91;72.92;101233.97;5030352;28;20045;-76
2022/05/31 04:19:52;;;;;;;9.45;7.03;;;;;;;8.94;72.78;101233.91;5041127;28;20041;-75
2022/05/31 04:22:19;;;;;;;9.48;6.43;;;;;;;8.96;72.86;101236.50;5043821;28;20045;-77
2022/05/31 04:24:54;;;;;;;8.55;6.68;;;;;;;8.98;72.50;101238.25;5037713;28;20041;-76
2022/05/31 04:27:40;;;;;;;9.50;6.70;;;;;;;9.00;72.69;101238.19;5032024;28;20041;-74
2022/05/31 04:30:44;;;;;;;13.48;6.95;;;;;;;9.01;72.87;101237.31;5044174;28;20042;-74
2022/05/31 04:33:30;;;;;;;10.48;6.18;;;;;;;9.04;72.66;101239.00;5045991;28;20068;-76
2022/05/31 04:36:06;;;;;;;11.43;7.50;;;;;;;9.07;72.67;101236.34;5044237;28;20050;-75
2022/05/31 04:38:35;;;;;;;11.73;7.35;;;;;;;9.09;72.84;101237.19;5045179;28;20044;-76
2022/05/31 04:41:28;;;;;;;9.10;6.97;;;;;;;9.12;72.77;101239.75;5031521;28;20096;-76
2022/05/31 04:44:07;;;;;;;11.10;7.03;;;;;;;9.10;72.66;101233.66;5031049;28;20129;-77
2022/05/31 04:46:38;;;;;;;23.27;8.05;;;;;;;9.11;72.88;101230.09;5045737;28;20506;-78
2022/05/31 04:49:26;;;;;;;12.00;7.30;;;;;;;9.11;72.69;101236.25;5049154;28;20060;-77
2022/05/31 04:51:53;;;;;;;13.23;6.82;;;;;;;9.13;73.03;101231.84;5044641;28;20068;-76
2022/05/31 04:54:24;;;;;;;9.95;7.38;;;;;;;9.18;72.87;101242.28;5047876;28;20037;-76
2022/05/31 04:57:09;;;;;;;13.27;6.43;;;;;;;9.20;72.98;101239.59;5044390;28;20041;-74
2022/05/31 04:59:38;;;;;;;12.55;6.25;;;;;;;9.31;73.32;101245.53;5030497;28;20045;-76
2022/05/31 05:02:08;;;;;;;8.57;5.75;;;;;;;9.40;73.04;101240.09;5047261;28;20049;-76
2022/05/31 05:04:39;;;;;;;8.80;5.82;;;;;;;9.56;72.86;101240.69;5046369;28;20046;-76
2022/05/31 05:07:08;;;;;;;9.73;4.63;;;;;;;9.68;72.56;101234.28;5035306;28;20538;-75
2022/05/31 05:09:36;;;;;;;12.63;6.30;;;;;;;9.79;71.36;101232.31;5048249;28;20199;-76
2022/05/31 05:12:24;;;;;;;8.15;5.90;;;;;;;9.86;70.96;101235.69;5050638;28;20046;-75
2022/05/31 05:14:59;;;;;;;11.75;6.10;;;;;;;9.86;70.76;101226.94;5060451;28;20052;-76
2022/05/31 05:17:27;;;;;;;17.98;6.65;;;;;;;9.88;70.93;101240.91;5075194;28;20033;-76
2022/05/31 05:19:55;;;;;;;15.98;6.75;;;;;;;9.91;70.82;101239.09;5058892;28;20034;-76
2022/05/31 05:22:23;;;;;;;8.57;5.80;;;;;;;9.93;70.79;101239.91;5048025;28;20094;-76
2022/05/31 05:24:50;;;;;;;10.48;6.35;;;;;;;9.96;70.91;101246.91;5049110;28;20042;-76
2022/05/31 05:27:24;;;;;;;10.25;5.90;;;;;;;10.01;70.96;101236.28;5040414;28;20547;-77
2022/05/31 05:32:51;;;;;;;8.43;5.90;;;;;;;10.18;70.21;101222.69;5046757;28;20553;-75
2022/05/31 05:35:29;;;;;;;10.02;6.10;;;;;;;10.24;70.37;101219.94;5063311;28;20038;-74
2022/05/31 05:38:10;;;;;;;13.43;6.80;;;;;;;10.30;70.22;101214.53;5046774;28;20045;-72
2022/05/31 05:41:14;;;;;;;10.20;6.85;;;;;;;10.42;70.90;101223.97;5045691;28;20040;-73
2022/05/31 05:44:01;;;;;;;11.23;7.15;;;;;;;10.53;70.58;101231.59;5045966;28;20038;-73
2022/05/31 05:46:32;;;;;;;7.63;6.10;;;;;;;10.60;70.46;101229.69;5048484;28;20469;-73
2022/05/31 05:49:01;;;;;;;9.82;6.18;;;;;;;10.65;69.86;101235.72;5049744;28;20041;-74
2022/05/31 05:51:31;;;;;;;10.70;6.18;;;;;;;10.63;70.12;101233.13;5048124;28;20044;-73
2022/05/31 05:54:36;;;;;;;9.98;6.13;;;;;;;10.61;70.46;101236.69;5068063;28;20136;-74
2022/05/31 05:57:22;;;;;;;11.50;6.63;;;;;;;10.53;70.60;101232.47;5067754;28;20049;-73
2022/05/31 06:00:09;;;;;;;9.88;6.40;;;;;;;10.44;71.10;101227.41;5051199;28;20064;-72
2022/05/31 06:03:10;;;;;;;14.25;6.05;;;;;;;10.38;71.01;101232.84;5045723;28;20051;-72
2022/05/31 06:05:51;;;;;;;10.88;6.40;;;;;;;10.35;71.00;101228.47;5048925;28;20467;-74
2022/05/31 06:08:32;;;;;;;8.10;6.35;;;;;;;10.33;71.40;101234.66;5046866;28;20041;-73
2022/05/31 06:11:17;;;;;;;10.90;6.47;;;;;;;10.28;71.65;101242.66;5049414;28;20538;-73
2022/05/31 06:14:25;;;;;;;10.18;6.53;;;;;;;10.26;72.15;101241.88;5050443;28;20097;-73
2022/05/31 06:17:03;;;;;;;8.13;6.25;;;;;;;10.25;72.35;101240.97;5035162;28;20065;-73
2022/05/31 06:19:37;;;;;;;15.88;7.05;;;;;;;10.25;72.33;101250.66;5049569;28;20068;-75
2022/05/31 06:22:14;;;;;;;10.48;6.40;;;;;;;10.23;72.58;101248.06;5053050;28;20037;-72
2022/05/31 06:24:58;;;;;;;9.32;6.78;;;;;;;10.22;72.65;101250.72;5051398;28;20038;-73
2022/05/31 06:27:48;;;;;;;7.90;6.38;;;;;;;10.20;72.86;101245.50;5049686;28;20057;-72
2022/05/31 06:30:16;;;;;;;10.05;6.55;;;;;;;10.17;73.31;101244.72;5053012;28;20047;-73
2022/05/31 06:32:43;;;;;;;11.93;7.30;;;;;;;10.13;73.11;101249.16;5049309;28;20103;-73
2022/05/31 06:35:12;;;;;;;11.82;7.25;;;;;;;10.14;73.02;101258.78;5043320;28;20057;-72
2022/05/31 06:37:57;;;;;;;9.05;6.95;;;;;;;10.16;73.43;101262.28;5052676;28;20050;-73
2022/05/31 06:40:24;;;;;;;10.82;7.13;;;;;;;10.17;74.66;101257.88;5052612;28;20049;-73
2022/05/31 06:43:20;;;;;;;12.48;7.45;;;;;;;10.18;74.99;101259.59;5049206;28;20038;-72
2022/05/31 06:46:07;;;;;;;14.18;7.55;;;;;;;10.13;75.09;101264.09;5034702;28;20133;-73
2022/05/31 06:48:54;;;;;;;13.73;8.10;;;;;;;10.07;75.30;101258.06;5038309;28;20042;-73
2022/05/31 06:57:49;;;;;;;9.60;7.22;;;;;;;10.02;77.16;101254.66;5054244;28;20065;-73
2022/05/31 07:00:34;;;;;;;11.88;7.82;;;;;;;10.02;77.61;101253.81;5048336;28;20089;-73
2022/05/31 07:03:03;;;;;;;12.07;7.45;;;;;;;9.99;77.69;101257.34;5033939;28;20120;-72
2022/05/31 07:05:38;;;;;;;12.32;7.35;;;;;;;9.98;77.99;101260.03;5048227;28;20042;-71
2022/05/31 07:08:15;;;;;;;9.93;6.78;;;;;;;9.98;78.40;101252.97;5056950;28;20159;-71
2022/05/31 07:10:54;;;;;;;10.00;6.65;;;;;;;10.00;77.88;101247.72;5035080;28;20053;-71
2022/05/31 07:13:40;;;;;;;10.43;6.70;;;;;;;10.05;77.91;101235.28;5034732;28;20121;-72
2022/05/31 07:16:44;;;;;;;11.32;6.80;;;;;;;10.05;77.83;101228.28;5035036;28;20049;-73
2022/05/31 07:19:30;;;;;;;11.65;7.30;;;;;;;10.03;78.00;101221.28;5047781;28;20171;-72
2022/05/31 07:22:17;;;;;;;9.15;5.95;;;;;;;10.04;77.61;101234.44;5052636;28;20049;-73
2022/05/31 07:24:49;;;;;;;10.75;5.70;;;;;;;10.07;76.85;101223.81;5048592;28;20042;-73
2022/05/31 07:27:25;;;;;;;8.93;5.80;;;;;;;10.13;77.06;101228.06;5046686;28;20117;-72
2022/05/31 07:29:59;;;;;;;12.70;6.25;;;;;;;10.19;77.52;101227.06;5033158;28;20098;-73
2022/05/31 07:32:26;;;;;;;8.25;5.63;;;;;;;10.25;77.03;101226.97;5041841;28;20072;-73
2022/05/31 07:35:13;;;;;;;7.07;5.63;;;;;;;10.33;76.54;101225.00;5030868;28;20538;-74
2022/05/31 07:37:42;;;;;;;10.02;5.82;;;;;;;10.42;76.49;101223.97;5030810;28;20034;-73
2022/05/31 07:40:10;;;;;;;13.05;6.05;;;;;;;10.51;75.35;101218.47;5045908;28;20043;-73
2022/05/31 07:42:37;;;;;;;14.00;6.25;;;;;;;10.59;75.26;101217.41;5051961;28;20132;-73
2022/05/31 07:45:06;;;;;;;11.85;6.53;;;;;;;10.66;75.43;101221.63;5053154;28;20081;-73
2022/05/31 07:47:34;;;;;;;10.25;6.28;;;;;;;10.75;75.42;101217.91;5042179;28;20034;-73
2022/05/31 07:50:06;;;;;;;11.50;6.00;;;;;;;10.84;75.21;101217.66;5034250;28;20030;-74
2022/05/31 07:52:43;;;;;;;9.77;5.65;;;;;;;10.93;74.89;101222.72;5046323;28;20112;-71
2022/05/31 07:55:29;;;;;;;8.35;5.40;;;;;;;11.07;74.78;101210.94;5043349;28;20052;-72
2022/05/31 08:01:25;;;;;;;11.20;6.32;;;;;;;11.42;74.86;101212.63;5034817;28;20061;-73
2022/05/31 08:03:58;;;;;;;10.02;6.03;;;;;;;11.62;74.83;101198.84;5051325;28;20153;-72
2022/05/31 08:06:33;;;;;;;8.85;5.78;;;;;;;11.81;74.70;101201.81;5051364;28;20040;-74
2022/05/31 08:09:02;;;;;;;8.98;5.78;;;;;;;12.05;71.70;101198.50;5040605;28;20500;-72
2022/05/31 08:11:32;;;;;;;6.35;5.28;;;;;;;12.15;72.48;101194.66;5052490;28;20053;-72
2022/05/31 08:14:01;;;;;;;10.07;5.13;;;;;;;12.30;72.62;101208.31;5048415;28;20551;-73
2022/05/31 08:16:30;;;;;;;8.13;5.25;;;;;;;12.42;71.93;101205.25;5051291;28;20041;-72
2022/05/31 08:18:59;;;;;;;8.20;5.40;;;;;;;12.54;71.08;101204.03;5050744;28;20045;-73
2022/05/31 08:21:30;;;;;;;10.68;5.05;;;;;;;12.64;70.87;101200.16;5044865;28;20058;-73
2022/05/31 08:24:24;;;;;;;6.70;4.65;;;;;;;12.79;69.81;101198.78;5046368;28;20042;-74
2022/05/31 08:27:10;;;;;;;8.73;4.60;;;;;;;12.93;69.43;101198.31;5044114;28;20120;-73
2022/05/31 08:29:39;;;;;;;9.70;4.88;;;;;;;13.08;68.89;101203.97;5043401;28;20137;-75
2022/05/31 08:32:08;;;;;;;6.70;4.15;;;;;;;13.38;67.15;101202.00;5035146;28;20121;-73
2022/05/31 08:34:35;;;;;;;6.53;3.95;;;;;;;13.64;66.85;101203.75;5032119;28;20037;-73
2022/05/31 08:37:03;;;;;;;9.50;4.20;;;;;;;14.02;65.31;101202.31;5048596;28;20832;-73
2022/05/31 08:39:30;;;;;;;8.90;4.78;;;;;;;14.27;65.87;101189.84;5052033;28;20108;-73
2022/05/31 08:42:13;;;;;;;7.43;4.80;;;;;;;14.62;65.44;101191.09;5052544;28;20041;-73
2022/05/31 08:45:00;;;;;;;7.40;3.60;;;;;;;14.88;60.81;101190.91;5031825;28;20205;-74
2022/05/31 08:47:36;;;;;;;10.63;4.30;;;;;;;14.94;61.22;101178.28;5032619;28;20046;-74
2022/05/31 08:53:40;;;;;;;4.25;3.65;;;;;;;15.26;61.15;101186.63;5032372;28;20069;-74
2022/05/31 08:59:24;;;;;;;6.78;3.85;;;;;;;15.53;58.25;101176.56;5030265;28;20128;-73
2022/05/31 09:01:59;;;;;;;6.13;3.65;;;;;;;15.69;57.44;101179.38;5033113;28;20046;-74
2022/05/31 09:04:48;;;;;;;6.72;3.58;;;;;;;15.76;57.85;101178.16;5051896;28;20050;-74
2022/05/31 09:07:32;;;;;;;6.10;3.70;;;;;;;15.94;55.55;101178.22;5048538;28;20145;-74
2022/05/31 09:10:31;;;;;;;6.55;3.28;;;;;;;15.96;54.39;101177.25;5043818;28;20049;-76
2022/05/31 09:13:19;;;;;;;6.13;2.97;;;;;;;16.04;54.57;101184.84;5039307;28;20057;-74
2022/05/31 09:16:10;;;;;;;6.15;3.20;;;;;;;16.17;55.07;101174.50;5045116;28;20527;-75
2022/05/31 09:18:43;;;;;;;4.20;2.60;;;;;;;16.43;50.93;101169.66;5052447;28;20052;-75
2022/05/31 09:21:24;;;;;;;4.32;2.85;;;;;;;16.48;52.21;101175.66;5049692;28;20125;-74
2022/05/31 09:23:55;;;;;;;3.65;2.30;;;;;;;16.69;50.73;101168.38;5052021;28;20509;-74
2022/05/31 09:27:04;;;;;;;2.40;1.90;;;;;;;16.92;47.24;101176.97;5051711;28;20840;-74
2022/05/31 09:30:03;;;;;;;5.05;2.08;;;;;;;16.87;48.15;101171.00;5049928;28;20127;-74
2022/05/31 09:33:20;;;;;;;3.33;2.40;;;;;;;16.92;49.01;101172.50;5045447;28;20070;-75
2022/05/31 09:36:11;;;;;;;5.75;2.28;;;;;;;17.15;45.92;101172.25;5048404;28;20066;-74
2022/05/31 09:39:05;;;;;;;3.10;2.25;;;;;;;17.32;46.00;101174.91;5032307;28;20042;-73
2022/05/31 09:41:59;;;;;;;4.10;2.25;;;;;;;17.50;45.33;101161.53;5043730;28;20104;-73
2022/05/31 09:44:38;;;;;;;3.28;1.92;;;;;;;17.68;46.81;101159.66;5050569;28;20050;-74
2022/05/31 09:47:39;;;;;;;4.13;2.20;;;;;;;18.05;45.86;101156.78;5055101;28;20076;-74
2022/05/31 09:50:07;;;;;;;5.00;2.75;;;;;;;18.24;45.29;101152.09;5074889;28;20049;-74
2022/05/31 09:52:47;;;;;;;5.57;2.25;;;;;;;18.26;44.71;101158.19;5045280;28;20038;-75
2022/05/31 09:58:27;;;;;;;5.22;2.30;;;;;;;18.09;45.98;101151.19;5054775;28;20049;-73
2022/05/31 10:01:30;;;;;;;5.32;2.03;;;;;;;18.19;45.88;101153.31;5029045;28;20062;-75
2022/05/31 10:04:30;;;;;;;2.95;2.42;;;;;;;18.19;44.87;101154.16;5033303;28;20096;-73
2022/05/31 10:07:08;;;;;;;4.63;2.40;;;;;;;18.06;46.26;101159.34;5042951;28;20041;-73
2022/05/31 10:09:41;;;;;;;5.32;3.10;;;;;;;18.22;45.08;101154.00;5049970;28;20081;-74
2022/05/31 10:12:11;;;;;;;4.10;2.88;;;;;;;18.25;45.51;101151.16;5038518;28;20061;-73
2022/05/31 10:14:49;;;;;;;5.38;2.60;;;;;;;18.27;46.13;101159.91;5044762;28;20042;-74
2022/05/31 10:17:32;;;;;;;6.97;3.22;;;;;;;18.41;45.88;101150.25;5034619;28;20536;-73
2022/05/31 10:20:26;;;;;;;4.55;2.60;;;;;;;18.52;46.59;101155.81;5035023;28;20046;-74
2022/05/31 10:23:05;;;;;;;4.18;3.08;;;;;;;18.75;46.09;101148.28;5034536;28;20062;-72
2022/05/31 10:25:58;;;;;;;4.25;2.50;;;;;;;18.89;44.18;101145.59;5050562;28;20041;-75
2022/05/31 10:29:03;;;;;;;3.55;2.97;;;;;;;18.94;44.01;101142.69;5044635;28;20045;-74
2022/05/31 10:31:48;;;;;;;6.15;2.70;;;;;;;19.02;45.55;101145.78;5037578;28;20054;-74
2022/05/31 10:34:35;;;;;;;8.30;3.70;;;;;;;19.17;45.87;101146.66;5045921;28;20037;-74
2022/05/31 10:37:07;;;;;;;7.32;3.45;;;;;;;19.07;45.78;101146.34;5046804;28;20046;-73
2022/05/31 10:39:39;;;;;;;12.13;3.45;;;;;;;18.78;44.62;101134.72;5037346;28;20042;-77
2022/05/31 10:42:14;;;;;;;4.75;2.67;;;;;;;18.98;46.03;101146.03;5053937;28;20989;-75
2022/05/31 10:44:51;;;;;;;5.38;2.97;;;;;;;19.13;43.68;101142.44;5046458;28;20096;-75
2022/05/31 10:47:21;;;;;;;4.15;2.97;;;;;;;19.20;41.58;101134.91;5043775;28;20046;-74
2022/05/31 10:49:50;;;;;;;6.82;3.55;;;;;;;19.14;41.09;101138.81;5052502;28;20045;-74
2022/05/31 10:52:56;;;;;;;3.88;2.63;;;;;;;19.14;41.29;101137.94;5049606;28;20048;-73
2022/05/31 10:56:09;;;;;;;5.40;2.50;;;;;;;19.18;42.71;101134.97;5040516;28;20041;-72
2022/05/31 10:58:52;;;;;;;3.38;2.50;;;;;;;19.13;42.84;101136.25;5049187;28;20046;-73
2022/05/31 11:01:50;;;;;;;4.75;2.70;;;;;;;18.78;42.12;101132.03;5034406;28;20769;-73
2022/05/31 11:04:48;;;;;;;5.72;2.58;;;;;;;18.63;42.89;101126.69;5044221;28;20180;-73
2022/05/31 11:11:29;;;;;;;6.22;2.55;;;;;;;19.39;42.31;101116.75;5043382;28;20128;-73
2022/05/31 11:14:23;;;;;;;9.27;3.38;;;;;;;19.63;41.00;101118.81;5046352;28;20045;-73
2022/05/31 11:17:32;;;;;;;5.80;3.08;;;;;;;19.69;40.07;101126.44;5034030;28;20058;-72
2022/05/31 11:20:09;;;;;;;6.32;2.90;;;;;;;19.23;40.28;101119.53;5033912;28;20081;-73
2022/05/31 11:22:47;;;;;;;6.50;2.60;;;;;;;18.87;41.12;101126.13;5051913;28;20064;-72
2022/05/31 11:25:45;;;;;;;4.32;2.60;;;;;;;18.57;41.49;101120.84;5049693;28;20042;-72
2022/05/31 11:29:13;;;;;;;4.03;2.75;;;;;;;18.56;41.94;101121.78;5037055;28;20042;-73
2022/05/31 11:32:03;;;;;;;7.88;2.95;;;;;;;18.46;42.47;101121.50;5052719;28;20038;-72
2022/05/31 11:34:44;;;;;;;3.75;2.67;;;;;;;18.53;42.96;101121.97;5049326;28;20095;-72
2022/05/31 11:37:19;;;;;;;6.70;2.60;;;;;;;18.59;42.96;101116.28;5053355;28;20044;-73
2022/05/31 11:40:16;;;;;;;4.85;1.98;;;;;;;18.78;39.92;101113.34;5034669;28;20042;-72
2022/05/31 11:43:11;;;;;;;2.92;1.73;;;;;;;19.01;40.51;101108.44;5033611;28;20504;-73
2022/05/31 11:45:49;;;;;;;;;;;;;;;19.31;40.38;101112.84;5035034;28;20586;-74
2022/05/31 11:49:03;;;;;;;10.13;2.65;;;;;;;19.71;41.04;101115.63;5041038;28;20419;-73
2022/05/31 11:51:59;;;;;;;3.03;1.88;;;;;;;19.94;40.42;101114.16;5032811;28;20042;-72
2022/05/31 11:58:23;;;;;;;2.55;1.58;;;;;;;20.36;40.21;101116.78;5036096;28;20157;-73
2022/05/31 12:01:40;;;;;;;3.75;2.05;;;;;;;20.33;39.81;101123.22;5030150;28;20128;-74
2022/05/31 12:04:19;;;;;;;5.50;2.13;;;;;;;20.24;38.57;101120.28;5065693;28;20507;-73
2022/05/31 12:07:06;;;;;;;20.60;3.67;;;;;;;20.06;39.99;101109.84;5032889;28;20037;-73
2022/05/31 12:10:00;;;;;;;6.00;2.75;;;;;;;20.04;40.13;101113.59;5051810;28;20108;-73
2022/05/31 12:12:34;;;;;;;12.50;3.10;;;;;;;19.99;39.09;101116.56;5041400;28;20084;-73
2022/05/31 12:15:14;;;;;;;11.63;3.33;;;;;;;19.92;39.53;101117.91;5050730;28;20056;-74
2022/05/31 12:17:58;;;;;;;11.75;3.20;;;;;;;19.81;39.53;101114.06;5032038;28;20075;-73
2022/05/31 12:20:35;;;;;;;7.72;2.45;;;;;;;19.67;40.50;101114.97;5040425;28;20046;-73
2022/05/31 12:23:32;;;;;;;4.90;2.20;;;;;;;19.58;39.68;101104.88;5032798;28;20048;-72
2022/05/31 12:26:05;;;;;;;10.90;2.85;;;;;;;19.44;40.30;101108.44;5042152;28;20037;-73
2022/05/31 12:29:16;;;;;;;3.45;2.22;;;;;;;19.34;39.45;101101.97;5059492;28;20089;-74
2022/05/31 12:31:43;;;;;;;8.45;2.92;;;;;;;19.14;40.26;101097.84;5064856;28;20089;-72
2022/05/31 12:34:33;;;;;;;9.68;2.50;;;;;;;19.07;40.27;101108.94;5068171;28;20072;-75
2022/05/31 12:37:12;;;;;;;4.43;2.38;;;;;;;19.03;40.55;101101.22;5063113;28;20048;-73
2022/05/31 12:39:44;;;;;;;24.80;3.83;;;;;;;19.06;40.90;101109.88;5053823;28;20083;-73
2022/05/31 12:42:14;;;;;;;5.82;2.53;;;;;;;19.17;40.48;101108.34;5053244;28;20129;-73
2022/05/31 12:44:44;;;;;;;13.95;2.80;;;;;;;19.26;40.05;101105.09;5045772;28;20125;-76
2022/05/31 12:47:32;;;;;;;22.58;5.55;;;;;;;19.35;39.71;101114.38;5042942;28;20030;-73
2022/05/31 12:50:07;;;;;;;26.27;3.20;;;;;;;19.39;39.01;101110.53;5044625;28;20050;-73
2022/05/31 12:55:24;;;;;;;6.93;2.70;;;;;;;19.45;37.89;101115.50;5047720;28;20089;-72